Wetterdaten: Woche 25.10.10 - 31.10.10 (KW43)
Datum Zeit Temperatur Luftfeuchte Luftdruck Niederschlag Wind Richtung Sonnenschein Solar Taupunkt Windchill Windben
25.10.2010 00:00 6.2 C 96 % 1013.5 hPa 0.2 l/m 1.6 km/h (1 Bft) O-SO 0.00 h 0 W/m 5.6 C 6.1 C 3.0 km/h (1 Bft)
25.10.2010 01:00 6.0 C 96 % 1013.4 hPa 0.0 l/m 0.0 km/h (0 Bft) N 0.00 h 0 W/m 5.5 C 6.0 C 0.0 km/h (0 Bft)
25.10.2010 02:00 5.8 C 97 % 1013.5 hPa 0.0 l/m 0.0 km/h (0 Bft) N 0.00 h 0 W/m 5.4 C 5.8 C 0.1 km/h (0 Bft)
25.10.2010 03:00 5.8 C 98 % 1013.6 hPa 0.0 l/m 0.0 km/h (0 Bft) N 0.00 h 0 W/m 5.5 C 5.8 C 0.2 km/h (0 Bft)
25.10.2010 04:00 5.8 C 96 % 1013.5 hPa 0.0 l/m 0.5 km/h (0 Bft) N-NO 0.00 h 0 W/m 5.3 C 5.8 C 2.0 km/h (1 Bft)
25.10.2010 05:00 5.7 C 92 % 1013.9 hPa 0.0 l/m 2.2 km/h (1 Bft) NO 0.00 h 0 W/m 4.5 C 5.5 C 5.2 km/h (1 Bft)
25.10.2010 06:00 5.6 C 90 % 1014.5 hPa 0.0 l/m 2.2 km/h (1 Bft) N-NO 0.00 h 0 W/m 4.1 C 5.5 C 4.9 km/h (1 Bft)
25.10.2010 07:00 5.6 C 89 % 1015.1 hPa 0.0 l/m 3.0 km/h (1 Bft) N-NO 0.00 h 0 W/m 3.9 C 5.2 C 6.9 km/h (2 Bft)
25.10.2010 08:00 5.6 C 88 % 1016.0 hPa 0.0 l/m 2.8 km/h (1 Bft) NO 0.00 h 21 W/m 3.8 C 5.4 C 6.0 km/h (2 Bft)
25.10.2010 09:00 5.8 C 88 % 1017.0 hPa 0.0 l/m 5.9 km/h (2 Bft) N 0.00 h 66 W/m 4.0 C 4.7 C 11.4 km/h (2 Bft)
25.10.2010 10:00 6.2 C 86 % 1017.5 hPa 0.0 l/m 8.1 km/h (2 Bft) N-NW 0.00 h 108 W/m 4.0 C 4.7 C 15.0 km/h (3 Bft)
25.10.2010 11:00 6.8 C 82 % 1017.9 hPa 0.0 l/m 8.1 km/h (2 Bft) N-NW 0.00 h 139 W/m 4.0 C 5.3 C 15.1 km/h (3 Bft)
25.10.2010 12:00 6.9 C 78 % 1018.7 hPa 0.0 l/m 10.2 km/h (2 Bft) N-NW 0.00 h 156 W/m 3.4 C 5.0 C 18.8 km/h (3 Bft)
25.10.2010 13:00 7.6 C 74 % 1019.0 hPa 0.0 l/m 10.9 km/h (2 Bft) N 0.02 h 226 W/m 3.2 C 5.7 C 18.7 km/h (3 Bft)
25.10.2010 14:00 7.9 C 70 % 1019.1 hPa 0.0 l/m 9.7 km/h (2 Bft) N 0.07 h 166 W/m 2.8 C 6.3 C 17.0 km/h (3 Bft)
25.10.2010 15:00 7.7 C 71 % 1019.6 hPa 0.0 l/m 8.2 km/h (2 Bft) N 0.10 h 131 W/m 2.8 C 6.3 C 15.6 km/h (3 Bft)
25.10.2010 16:00 7.5 C 71 % 1020.1 hPa 0.0 l/m 8.8 km/h (2 Bft) N 0.43 h 138 W/m 2.7 C 6.0 C 15.8 km/h (3 Bft)
25.10.2010 17:00 7.5 C 71 % 1020.5 hPa 0.0 l/m 7.8 km/h (2 Bft) N 1.00 h 102 W/m 2.5 C 6.2 C 14.3 km/h (3 Bft)
25.10.2010 18:00 6.6 C 73 % 1021.3 hPa 0.0 l/m 4.4 km/h (1 Bft) N-NO 0.20 h 16 W/m 2.1 C 6.1 C 8.7 km/h (2 Bft)
25.10.2010 19:00 5.9 C 75 % 1022.3 hPa 0.0 l/m 3.5 km/h (1 Bft) N-NO 0.00 h 0 W/m 1.8 C 5.5 C 7.1 km/h (2 Bft)
25.10.2010 20:00 5.7 C 77 % 1023.0 hPa 0.0 l/m 4.8 km/h (1 Bft) N 0.00 h 0 W/m 1.9 C 5.0 C 8.7 km/h (2 Bft)
25.10.2010 21:00 5.4 C 77 % 1023.4 hPa 0.0 l/m 3.3 km/h (1 Bft) N 0.00 h 0 W/m 1.7 C 5.1 C 6.8 km/h (2 Bft)
25.10.2010 22:00 5.5 C 77 % 1024.1 hPa 0.0 l/m 2.1 km/h (1 Bft) N-NO 0.00 h 0 W/m 1.8 C 5.4 C 4.8 km/h (1 Bft)
25.10.2010 23:00 4.8 C 78 % 1024.8 hPa 0.0 l/m 0.2 km/h (0 Bft) O-NO 0.00 h 0 W/m 1.3 C 4.8 C 1.5 km/h (1 Bft)
26.10.2010 00:00 4.4 C 81 % 1025.3 hPa 0.0 l/m 0.7 km/h (0 Bft) N-NO 0.00 h 0 W/m 1.6 C 4.4 C 2.6 km/h (1 Bft)
26.10.2010 01:00 3.9 C 83 % 1025.4 hPa 0.0 l/m 0.3 km/h (0 Bft) N 0.00 h 0 W/m 1.3 C 3.9 C 1.5 km/h (1 Bft)
26.10.2010 02:00 3.3 C 86 % 1025.6 hPa 0.0 l/m 1.4 km/h (1 Bft) O 0.00 h 0 W/m 1.2 C 3.2 C 3.5 km/h (1 Bft)
26.10.2010 03:00 2.7 C 88 % 1025.5 hPa 0.0 l/m 1.6 km/h (1 Bft) O-SO 0.00 h 0 W/m 0.9 C 2.7 C 3.3 km/h (1 Bft)
26.10.2010 04:00 1.7 C 92 % 1025.9 hPa 0.0 l/m 0.9 km/h (0 Bft) O-SO 0.00 h 0 W/m 0.5 C 1.7 C 1.9 km/h (1 Bft)
26.10.2010 05:00 1.9 C 90 % 1026.2 hPa 0.0 l/m 3.3 km/h (1 Bft) O 0.00 h 0 W/m 0.5 C 1.6 C 5.0 km/h (1 Bft)
26.10.2010 06:00 1.9 C 90 % 1026.9 hPa 0.0 l/m 0.7 km/h (0 Bft) O-NO 0.00 h 0 W/m 0.4 C 1.9 C 2.3 km/h (1 Bft)
26.10.2010 07:00 1.5 C 90 % 1027.5 hPa 0.0 l/m 0.8 km/h (0 Bft) O 0.00 h 0 W/m 0.1 C 1.5 C 2.4 km/h (1 Bft)
26.10.2010 08:00 1.0 C 92 % 1028.1 hPa 0.0 l/m 1.7 km/h (1 Bft) O 0.03 h 20 W/m -0.2 C 1.0 C 3.3 km/h (1 Bft)
26.10.2010 09:00 2.5 C 89 % 1028.5 hPa 0.0 l/m 1.8 km/h (1 Bft) O 0.62 h 135 W/m 0.9 C 2.5 C 3.6 km/h (1 Bft)
26.10.2010 10:00 5.8 C 79 % 1028.4 hPa 0.0 l/m 4.0 km/h (1 Bft) N 1.00 h 296 W/m 2.4 C 5.3 C 7.0 km/h (2 Bft)
26.10.2010 11:00 7.7 C 71 % 1028.5 hPa 0.0 l/m 3.8 km/h (1 Bft) O 1.00 h 400 W/m 2.8 C 7.3 C 7.4 km/h (2 Bft)
26.10.2010 12:00 9.2 C 60 % 1028.4 hPa 0.0 l/m 5.4 km/h (1 Bft) O-SO 1.00 h 462 W/m 1.7 C 8.6 C 10.3 km/h (2 Bft)
26.10.2010 13:00 9.9 C 56 % 1028.3 hPa 0.0 l/m 5.3 km/h (1 Bft) O-SO 1.00 h 469 W/m 1.4 C 9.5 C 10.8 km/h (2 Bft)
26.10.2010 14:00 10.4 C 54 % 1028.2 hPa 0.0 l/m 4.5 km/h (1 Bft) O-SO 1.00 h 425 W/m 1.5 C 10.4 C 9.3 km/h (2 Bft)
26.10.2010 15:00 10.3 C 54 % 1027.9 hPa 0.0 l/m 5.2 km/h (1 Bft) O-SO 1.00 h 336 W/m 1.4 C 10.3 C 9.8 km/h (2 Bft)
26.10.2010 16:00 10.0 C 54 % 1028.0 hPa 0.0 l/m 6.4 km/h (2 Bft) O-SO 1.00 h 213 W/m 1.1 C 9.6 C 10.5 km/h (2 Bft)
26.10.2010 17:00 9.1 C 57 % 1028.1 hPa 0.0 l/m 4.2 km/h (1 Bft) O-SO 0.73 h 77 W/m 1.2 C 8.8 C 7.3 km/h (2 Bft)
26.10.2010 18:00 7.2 C 67 % 1028.6 hPa 0.0 l/m 0.9 km/h (0 Bft) O-NO 0.17 h 12 W/m 1.5 C 7.2 C 2.4 km/h (1 Bft)
26.10.2010 19:00 5.5 C 76 % 1029.2 hPa 0.0 l/m 1.3 km/h (1 Bft) O-SO 0.00 h 0 W/m 1.5 C 5.5 C 2.8 km/h (1 Bft)
26.10.2010 20:00 4.3 C 82 % 1029.5 hPa 0.0 l/m 0.6 km/h (0 Bft) O-SO 0.00 h 0 W/m 1.4 C 4.3 C 2.0 km/h (1 Bft)
26.10.2010 21:00 3.3 C 86 % 1029.5 hPa 0.0 l/m 1.3 km/h (1 Bft) O-SO 0.00 h 0 W/m 1.2 C 3.2 C 2.2 km/h (1 Bft)
26.10.2010 22:00 2.5 C 90 % 1029.4 hPa 0.0 l/m 1.8 km/h (1 Bft) O-SO 0.00 h 0 W/m 0.9 C 2.2 C 2.8 km/h (1 Bft)
26.10.2010 23:00 2.1 C 92 % 1029.1 hPa 0.0 l/m 0.7 km/h (0 Bft) SO 0.00 h 0 W/m 0.9 C 2.1 C 1.4 km/h (1 Bft)
27.10.2010 00:00 1.9 C 93 % 1028.8 hPa 0.0 l/m 0.9 km/h (0 Bft) SO 0.00 h 0 W/m 0.9 C 1.9 C 1.2 km/h (1 Bft)
27.10.2010 01:00 1.3 C 94 % 1028.5 hPa 0.0 l/m 0.9 km/h (0 Bft) O-SO 0.00 h 0 W/m 0.4 C 1.2 C 1.8 km/h (1 Bft)
27.10.2010 02:00 0.6 C 95 % 1028.4 hPa 0.0 l/m 1.7 km/h (1 Bft) SO 0.00 h 0 W/m -0.2 C 0.6 C 2.8 km/h (1 Bft)
27.10.2010 03:00 0.4 C 95 % 1028.5 hPa 0.0 l/m 2.6 km/h (1 Bft) O-SO 0.00 h 0 W/m -0.4 C -0.0 C 3.8 km/h (1 Bft)
27.10.2010 04:00 0.0 C 96 % 1028.5 hPa 0.0 l/m 0.0 km/h (0 Bft) O-SO 0.00 h 0 W/m -0.6 C 0.0 C 0.2 km/h (0 Bft)
27.10.2010 05:00 -0.2 C 96 % 1028.8 hPa 0.0 l/m 0.5 km/h (0 Bft) O-SO 0.00 h 0 W/m -0.7 C -0.2 C 1.1 km/h (1 Bft)
27.10.2010 06:00 -0.5 C 97 % 1028.9 hPa 0.0 l/m 0.2 km/h (0 Bft) O-SO 0.00 h 0 W/m -0.9 C -0.5 C 0.5 km/h (0 Bft)
27.10.2010 07:00 -0.4 C 97 % 1028.8 hPa 0.0 l/m 0.3 km/h (0 Bft) O-SO 0.00 h 0 W/m -0.9 C -0.4 C 0.7 km/h (0 Bft)
27.10.2010 08:00 0.1 C 97 % 1029.1 hPa 0.0 l/m 0.2 km/h (0 Bft) O-SO 0.30 h 34 W/m -0.3 C 0.1 C 0.5 km/h (0 Bft)
27.10.2010 09:00 1.0 C 98 % 1029.2 hPa 0.0 l/m 0.0 km/h (0 Bft) N 0.13 h 87 W/m 0.7 C 1.0 C 0.0 km/h (0 Bft)
27.10.2010 10:00 3.2 C 91 % 1029.0 hPa 0.0 l/m 0.2 km/h (0 Bft) O-SO 0.92 h 267 W/m 2.0 C 3.2 C 0.9 km/h (0 Bft)
27.10.2010 11:00 5.7 C 83 % 1028.5 hPa 0.0 l/m 1.0 km/h (0 Bft) N-NW 1.00 h 387 W/m 3.1 C 5.7 C 2.5 km/h (1 Bft)
27.10.2010 12:00 7.9 C 75 % 1027.9 hPa 0.0 l/m 1.7 km/h (1 Bft) W-NW 1.00 h 424 W/m 3.7 C 7.9 C 3.6 km/h (1 Bft)
27.10.2010 13:00 9.6 C 69 % 1027.1 hPa 0.0 l/m 1.3 km/h (1 Bft) SO 1.00 h 447 W/m 4.1 C 9.6 C 3.4 km/h (1 Bft)
27.10.2010 14:00 10.6 C 66 % 1026.3 hPa 0.0 l/m 2.0 km/h (1 Bft) S-SO 1.00 h 386 W/m 4.5 C 10.6 C 4.4 km/h (1 Bft)
27.10.2010 15:00 10.9 C 65 % 1025.8 hPa 0.0 l/m 1.4 km/h (1 Bft) W 0.88 h 288 W/m 4.5 C 10.9 C 3.3 km/h (1 Bft)
27.10.2010 16:00 11.2 C 64 % 1025.5 hPa 0.0 l/m 2.9 km/h (1 Bft) NW 0.98 h 197 W/m 4.5 C 11.2 C 5.1 km/h (1 Bft)
27.10.2010 17:00 10.4 C 65 % 1025.5 hPa 0.0 l/m 1.2 km/h (1 Bft) W 0.72 h 73 W/m 4.2 C 10.4 C 2.4 km/h (1 Bft)
27.10.2010 18:00 7.9 C 75 % 1025.6 hPa 0.0 l/m 1.4 km/h (1 Bft) O-SO 0.02 h 8 W/m 3.6 C 7.9 C 2.8 km/h (1 Bft)
27.10.2010 19:00 6.6 C 84 % 1026.1 hPa 0.0 l/m 0.7 km/h (0 Bft) O-SO 0.00 h 0 W/m 4.1 C 6.6 C 1.4 km/h (1 Bft)
27.10.2010 20:00 6.1 C 87 % 1026.1 hPa 0.0 l/m 0.4 km/h (0 Bft) O-SO 0.00 h 0 W/m 4.0 C 6.1 C 1.1 km/h (1 Bft)
27.10.2010 21:00 5.2 C 89 % 1026.0 hPa 0.0 l/m 2.3 km/h (1 Bft) O-SO 0.00 h 0 W/m 3.6 C 5.2 C 3.2 km/h (1 Bft)
27.10.2010 22:00 4.7 C 91 % 1025.9 hPa 0.0 l/m 2.3 km/h (1 Bft) O-SO 0.00 h 0 W/m 3.3 C 4.6 C 3.3 km/h (1 Bft)
27.10.2010 23:00 4.6 C 92 % 1025.9 hPa 0.0 l/m 1.0 km/h (0 Bft) O-SO 0.00 h 0 W/m 3.4 C 4.6 C 1.8 km/h (1 Bft)
28.10.2010 00:00 5.1 C 92 % 1025.7 hPa 0.0 l/m 0.4 km/h (0 Bft) O-SO 0.00 h 0 W/m 3.8 C 5.1 C 1.1 km/h (1 Bft)
28.10.2010 01:00 5.2 C 92 % 1025.3 hPa 0.0 l/m 0.9 km/h (0 Bft) O-SO 0.00 h 0 W/m 3.9 C 5.1 C 1.5 km/h (1 Bft)
28.10.2010 02:00 4.8 C 93 % 1025.0 hPa 0.0 l/m 1.1 km/h (0 Bft) O-SO 0.00 h 0 W/m 3.7 C 4.8 C 2.0 km/h (1 Bft)
28.10.2010 03:00 5.0 C 93 % 1024.7 hPa 0.0 l/m 0.7 km/h (0 Bft) O-SO 0.00 h 0 W/m 4.0 C 5.0 C 1.8 km/h (1 Bft)
28.10.2010 04:00 4.8 C 92 % 1024.4 hPa 0.0 l/m 0.7 km/h (0 Bft) O-SO 0.00 h 0 W/m 3.7 C 4.8 C 1.3 km/h (1 Bft)
28.10.2010 05:00 4.2 C 93 % 1024.4 hPa 0.0 l/m 1.7 km/h (1 Bft) O-SO 0.00 h 0 W/m 3.3 C 4.2 C 2.8 km/h (1 Bft)
28.10.2010 06:00 3.4 C 95 % 1024.7 hPa 0.0 l/m 0.6 km/h (0 Bft) O-SO 0.00 h 0 W/m 2.7 C 3.4 C 1.4 km/h (1 Bft)
28.10.2010 07:00 3.1 C 96 % 1024.7 hPa 0.0 l/m 0.9 km/h (0 Bft) O-SO 0.00 h 0 W/m 2.5 C 3.1 C 1.2 km/h (1 Bft)
28.10.2010 08:00 2.9 C 96 % 1025.3 hPa 0.0 l/m 0.1 km/h (0 Bft) O-SO 0.02 h 30 W/m 2.3 C 2.9 C 0.2 km/h (0 Bft)
28.10.2010 09:00 3.7 C 97 % 1025.5 hPa 0.0 l/m 0.2 km/h (0 Bft) O-SO 0.08 h 75 W/m 3.3 C 3.7 C 0.5 km/h (0 Bft)
28.10.2010 10:00 6.3 C 90 % 1025.6 hPa 0.0 l/m 0.2 km/h (0 Bft) N-NO 0.97 h 250 W/m 4.8 C 6.3 C 1.0 km/h (0 Bft)
28.10.2010 11:00 8.6 C 81 % 1025.2 hPa 0.0 l/m 1.4 km/h (1 Bft) S-SO 0.92 h 367 W/m 5.6 C 8.5 C 3.1 km/h (1 Bft)
28.10.2010 12:00 11.0 C 73 % 1024.8 hPa 0.0 l/m 2.5 km/h (1 Bft) S-SO 0.70 h 300 W/m 6.3 C 11.0 C 5.6 km/h (1 Bft)
28.10.2010 13:00 12.7 C 67 % 1024.2 hPa 0.0 l/m 2.6 km/h (1 Bft) S-SO 0.73 h 350 W/m 6.7 C 12.7 C 5.7 km/h (1 Bft)
28.10.2010 14:00 13.6 C 62 % 1023.4 hPa 0.0 l/m 1.8 km/h (1 Bft) S 0.67 h 279 W/m 6.5 C 13.6 C 4.3 km/h (1 Bft)
28.10.2010 15:00 13.9 C 49 % 1022.9 hPa 0.0 l/m 2.6 km/h (1 Bft) W-SW 0.40 h 212 W/m 3.3 C 13.9 C 5.4 km/h (1 Bft)
28.10.2010 16:00 13.6 C 44 % 1022.8 hPa 0.0 l/m 3.0 km/h (1 Bft) W 0.33 h 143 W/m 1.5 C 13.6 C 5.0 km/h (1 Bft)
28.10.2010 17:00 12.9 C 46 % 1022.6 hPa 0.0 l/m 0.3 km/h (0 Bft) S-SW 0.28 h 58 W/m 1.5 C 12.9 C 1.4 km/h (1 Bft)
28.10.2010 18:00 10.0 C 63 % 1022.9 hPa 0.0 l/m 2.7 km/h (1 Bft) O-SO 0.05 h 9 W/m 3.2 C 10.0 C 3.9 km/h (1 Bft)
28.10.2010 19:00 8.2 C 76 % 1023.1 hPa 0.0 l/m 0.4 km/h (0 Bft) O-SO 0.00 h 0 W/m 4.3 C 8.2 C 0.6 km/h (0 Bft)
28.10.2010 20:00 6.6 C 84 % 1023.3 hPa 0.0 l/m 0.0 km/h (0 Bft) N 0.00 h 0 W/m 4.1 C 6.6 C 0.0 km/h (0 Bft)
28.10.2010 21:00 5.6 C 88 % 1023.2 hPa 0.0 l/m 0.0 km/h (0 Bft) N 0.00 h 0 W/m 3.7 C 5.6 C 0.0 km/h (0 Bft)
28.10.2010 22:00 4.6 C 91 % 1023.1 hPa 0.0 l/m 0.0 km/h (0 Bft) N 0.00 h 0 W/m 3.3 C 4.6 C 0.0 km/h (0 Bft)
28.10.2010 23:00 4.2 C 92 % 1022.8 hPa 0.0 l/m 0.0 km/h (0 Bft) N 0.00 h 0 W/m 2.9 C 4.2 C 0.0 km/h (0 Bft)
29.10.2010 00:00 3.6 C 93 % 1022.6 hPa 0.0 l/m 0.0 km/h (0 Bft) N 0.00 h 0 W/m 2.6 C 3.6 C 0.0 km/h (0 Bft)
29.10.2010 01:00 3.0 C 95 % 1021.9 hPa 0.0 l/m 0.0 km/h (0 Bft) N 0.00 h 0 W/m 2.2 C 3.0 C 0.0 km/h (0 Bft)
29.10.2010 02:00 2.5 C 95 % 1021.3 hPa 0.0 l/m 0.0 km/h (0 Bft) N 0.00 h 0 W/m 1.7 C 2.5 C 0.0 km/h (0 Bft)
29.10.2010 03:00 1.9 C 96 % 1020.9 hPa 0.0 l/m 0.0 km/h (0 Bft) N 0.00 h 0 W/m 1.3 C 1.9 C 0.0 km/h (0 Bft)
29.10.2010 04:00 1.7 C 96 % 1020.3 hPa 0.0 l/m 0.0 km/h (0 Bft) N 0.00 h 0 W/m 1.2 C 1.7 C 0.0 km/h (0 Bft)
29.10.2010 05:00 1.5 C 96 % 1020.0 hPa 0.0 l/m 0.0 km/h (0 Bft) N 0.00 h 0 W/m 0.9 C 1.5 C 0.0 km/h (0 Bft)
29.10.2010 06:00 1.1 C 97 % 1019.7 hPa 0.0 l/m 0.0 km/h (0 Bft) N 0.00 h 0 W/m 0.7 C 1.1 C 0.0 km/h (0 Bft)
29.10.2010 07:00 0.9 C 97 % 1019.4 hPa 0.0 l/m 0.0 km/h (0 Bft) N 0.00 h 0 W/m 0.4 C 0.9 C 0.0 km/h (0 Bft)
29.10.2010 08:00 1.1 C 98 % 1019.3 hPa 0.0 l/m 0.0 km/h (0 Bft) N 0.00 h 22 W/m 0.7 C 1.1 C 0.0 km/h (0 Bft)
29.10.2010 09:00 1.7 C 98 % 1019.2 hPa 0.0 l/m 0.0 km/h (0 Bft) N 0.08 h 89 W/m 1.5 C 1.7 C 0.0 km/h (0 Bft)
29.10.2010 10:00 3.4 C 98 % 1018.7 hPa 0.0 l/m 0.0 km/h (0 Bft) N 0.23 h 165 W/m 3.1 C 3.4 C 0.0 km/h (0 Bft)
29.10.2010 11:00 5.6 C 96 % 1017.9 hPa 0.0 l/m 0.0 km/h (0 Bft) N 0.75 h 282 W/m 5.1 C 5.6 C 0.0 km/h (0 Bft)
29.10.2010 12:00 8.6 C 88 % 1017.0 hPa 0.0 l/m 0.0 km/h (0 Bft) N 1.00 h 419 W/m 6.8 C 8.6 C 0.0 km/h (0 Bft)
29.10.2010 13:00 11.6 C 79 % 1015.7 hPa 0.0 l/m 0.0 km/h (0 Bft) N 1.00 h 443 W/m 8.0 C 11.6 C 0.0 km/h (0 Bft)
29.10.2010 14:00 13.6 C 72 % 1014.1 hPa 0.0 l/m 0.0 km/h (0 Bft) N 1.00 h 387 W/m 8.6 C 13.6 C 0.0 km/h (0 Bft)
29.10.2010 15:00 14.8 C 67 % 1012.8 hPa 0.0 l/m 0.0 km/h (0 Bft) N 1.00 h 304 W/m 8.8 C 14.8 C 0.0 km/h (0 Bft)
29.10.2010 16:00 15.1 C 67 % 1011.7 hPa 0.0 l/m 0.0 km/h (0 Bft) N 0.97 h 185 W/m 9.1 C 15.1 C 0.0 km/h (0 Bft)
29.10.2010 17:00 14.0 C 69 % 1011.2 hPa 0.0 l/m 0.0 km/h (0 Bft) N 0.30 h 48 W/m 8.4 C 14.0 C 0.0 km/h (0 Bft)
29.10.2010 18:00 10.8 C 80 % 1011.3 hPa 0.0 l/m 0.0 km/h (0 Bft) N 0.00 h 6 W/m 7.6 C 10.8 C 0.0 km/h (0 Bft)
29.10.2010 19:00 8.5 C 89 % 1011.5 hPa 0.0 l/m 0.4 km/h (0 Bft) O-SO 0.00 h 0 W/m 6.7 C 8.4 C 0.9 km/h (0 Bft)
29.10.2010 20:00 7.1 C 93 % 1011.4 hPa 0.0 l/m 1.2 km/h (1 Bft) O-SO 0.00 h 0 W/m 6.0 C 7.1 C 2.0 km/h (1 Bft)
29.10.2010 21:00 6.1 C 95 % 1010.9 hPa 0.0 l/m 1.1 km/h (1 Bft) O-SO 0.00 h 0 W/m 5.3 C 6.0 C 2.2 km/h (1 Bft)
29.10.2010 22:00 5.7 C 95 % 1010.3 hPa 0.0 l/m 2.3 km/h (1 Bft) O 0.00 h 0 W/m 5.0 C 5.5 C 4.1 km/h (1 Bft)
29.10.2010 23:00 5.1 C 97 % 1009.4 hPa 0.0 l/m 2.5 km/h (1 Bft) O 0.00 h 0 W/m 4.6 C 4.8 C 4.4 km/h (1 Bft)
30.10.2010 00:00 4.8 C 97 % 1009.0 hPa 0.0 l/m 1.7 km/h (1 Bft) O-SO 0.00 h 0 W/m 4.3 C 4.6 C 3.1 km/h (1 Bft)
30.10.2010 01:00 4.4 C 97 % 1008.6 hPa 0.0 l/m 2.2 km/h (1 Bft) O-SO 0.00 h 0 W/m 3.9 C 4.2 C 3.2 km/h (1 Bft)
30.10.2010 02:00 4.3 C 97 % 1008.1 hPa 0.0 l/m 0.6 km/h (0 Bft) O 0.00 h 0 W/m 3.9 C 4.3 C 1.4 km/h (1 Bft)
30.10.2010 03:00 4.3 C 98 % 1007.5 hPa 0.0 l/m 0.2 km/h (0 Bft) O 0.00 h 0 W/m 4.0 C 4.3 C 0.7 km/h (0 Bft)
30.10.2010 04:00 4.1 C 98 % 1007.2 hPa 0.0 l/m 0.6 km/h (0 Bft) O 0.00 h 0 W/m 3.8 C 4.1 C 1.4 km/h (1 Bft)
30.10.2010 05:00 4.8 C 98 % 1007.4 hPa 0.0 l/m 1.6 km/h (1 Bft) O 0.00 h 0 W/m 4.5 C 4.5 C 3.3 km/h (1 Bft)
30.10.2010 06:00 5.2 C 99 % 1008.1 hPa 0.0 l/m 2.1 km/h (1 Bft) O-SO 0.00 h 0 W/m 5.0 C 5.0 C 3.9 km/h (1 Bft)
30.10.2010 07:00 5.2 C 99 % 1007.9 hPa 0.2 l/m 0.7 km/h (0 Bft) O-SO 0.00 h 0 W/m 5.1 C 5.2 C 1.6 km/h (1 Bft)
30.10.2010 08:00 5.2 C 99 % 1008.2 hPa 0.0 l/m 0.7 km/h (0 Bft) O-SO 0.00 h 11 W/m 5.0 C 5.2 C 1.4 km/h (1 Bft)
30.10.2010 09:00 5.5 C 99 % 1008.7 hPa 0.0 l/m 0.4 km/h (0 Bft) O-SO 0.00 h 49 W/m 5.3 C 5.5 C 1.2 km/h (1 Bft)
30.10.2010 10:00 6.8 C 98 % 1008.8 hPa 0.0 l/m 0.4 km/h (0 Bft) O-SO 0.08 h 142 W/m 6.5 C 6.8 C 1.1 km/h (1 Bft)
30.10.2010 11:00 8.2 C 95 % 1009.0 hPa 0.0 l/m 0.1 km/h (0 Bft) O-SO 0.27 h 223 W/m 7.5 C 8.2 C 0.6 km/h (0 Bft)
30.10.2010 12:00 10.8 C 87 % 1008.6 hPa 0.0 l/m 1.0 km/h (0 Bft) NW 0.75 h 351 W/m 8.8 C 10.8 C 2.4 km/h (1 Bft)
30.10.2010 13:00 12.8 C 80 % 1008.4 hPa 0.0 l/m 2.0 km/h (1 Bft) S-SO 0.77 h 403 W/m 9.4 C 12.8 C 3.6 km/h (1 Bft)
30.10.2010 14:00 15.1 C 68 % 1007.9 hPa 0.0 l/m 4.1 km/h (1 Bft) W 0.52 h 309 W/m 9.2 C 15.1 C 7.7 km/h (2 Bft)
30.10.2010 15:00 14.8 C 61 % 1007.8 hPa 0.0 l/m 8.9 km/h (2 Bft) W 0.13 h 153 W/m 7.4 C 14.8 C 14.6 km/h (3 Bft)
30.10.2010 16:00 14.1 C 64 % 1007.8 hPa 0.0 l/m 3.3 km/h (1 Bft) W 0.00 h 76 W/m 7.4 C 14.1 C 5.8 km/h (2 Bft)
30.10.2010 17:00 13.3 C 69 % 1007.5 hPa 0.0 l/m 1.3 km/h (1 Bft) O-SO 0.00 h 32 W/m 7.7 C 13.3 C 2.0 km/h (1 Bft)
30.10.2010 18:00 11.6 C 78 % 1007.1 hPa 0.0 l/m 2.1 km/h (1 Bft) O-SO 0.00 h 6 W/m 7.9 C 11.6 C 3.2 km/h (1 Bft)
30.10.2010 19:00 9.9 C 84 % 1006.6 hPa 0.0 l/m 0.0 km/h (0 Bft) N 0.00 h 0 W/m 7.3 C 9.9 C 0.0 km/h (0 Bft)
30.10.2010 20:00 9.2 C 88 % 1006.5 hPa 0.0 l/m 0.2 km/h (0 Bft) O-SO 0.00 h 0 W/m 7.3 C 9.2 C 0.3 km/h (0 Bft)
30.10.2010 21:00 8.6 C 90 % 1005.7 hPa 0.0 l/m 0.7 km/h (0 Bft) O-SO 0.00 h 0 W/m 7.0 C 8.5 C 0.9 km/h (0 Bft)
30.10.2010 22:00 7.6 C 92 % 1004.8 hPa 0.0 l/m 0.4 km/h (0 Bft) O-SO 0.00 h 0 W/m 6.5 C 7.6 C 0.9 km/h (0 Bft)
30.10.2010 23:00 7.0 C 94 % 1003.7 hPa 0.0 l/m 0.2 km/h (0 Bft) O-SO 0.00 h 0 W/m 6.1 C 7.0 C 0.8 km/h (0 Bft)
31.10.2010 00:00 6.8 C 95 % 1002.7 hPa 0.0 l/m 0.0 km/h (0 Bft) O-SO 0.00 h 0 W/m 6.0 C 6.8 C 0.4 km/h (0 Bft)
31.10.2010 01:00 7.1 C 96 % 1001.9 hPa 0.0 l/m 0.7 km/h (0 Bft) O-SO 0.00 h 0 W/m 6.4 C 7.1 C 1.7 km/h (1 Bft)
31.10.2010 02:00 7.1 C 95 % 1000.6 hPa 0.0 l/m 1.3 km/h (1 Bft) N-NW 0.00 h 0 W/m 6.3 C 7.0 C 3.0 km/h (1 Bft)
31.10.2010 03:00 7.0 C 95 % 1001.0 hPa 0.0 l/m 1.7 km/h (1 Bft) N-NO 0.00 h 0 W/m 6.2 C 7.0 C 3.5 km/h (1 Bft)
31.10.2010 04:00 7.0 C 94 % 1001.2 hPa 0.0 l/m 1.5 km/h (1 Bft) O-SO 0.00 h 0 W/m 6.1 C 6.9 C 2.7 km/h (1 Bft)
31.10.2010 05:00 6.7 C 95 % 1001.6 hPa 0.0 l/m 3.2 km/h (1 Bft) O 0.00 h 0 W/m 5.9 C 6.2 C 4.5 km/h (1 Bft)
31.10.2010 06:00 6.3 C 95 % 1002.1 hPa 0.0 l/m 3.7 km/h (1 Bft) O-SO 0.00 h 0 W/m 5.6 C 6.0 C 5.0 km/h (1 Bft)
31.10.2010 07:00 7.1 C 94 % 1002.7 hPa 0.0 l/m 1.3 km/h (1 Bft) O-SO 0.17 h 30 W/m 6.2 C 7.0 C 2.5 km/h (1 Bft)
31.10.2010 08:00 8.1 C 92 % 1003.0 hPa 0.0 l/m 0.7 km/h (0 Bft) O 0.00 h 44 W/m 6.9 C 8.1 C 1.8 km/h (1 Bft)
31.10.2010 09:00 9.2 C 91 % 1003.6 hPa 0.0 l/m 0.5 km/h (0 Bft) O 0.72 h 239 W/m 7.9 C 9.2 C 1.4 km/h (1 Bft)
31.10.2010 10:00 11.2 C 85 % 1003.1 hPa 0.0 l/m 2.6 km/h (1 Bft) W-NW 0.93 h 344 W/m 8.9 C 11.2 C 4.6 km/h (1 Bft)
31.10.2010 11:00 12.5 C 81 % 1002.3 hPa 0.0 l/m 1.1 km/h (1 Bft) N-NW 0.43 h 261 W/m 9.3 C 12.5 C 2.6 km/h (1 Bft)
31.10.2010 12:00 14.1 C 74 % 1001.2 hPa 0.0 l/m 3.3 km/h (1 Bft) O-SO 0.50 h 307 W/m 9.5 C 14.1 C 5.8 km/h (2 Bft)
31.10.2010 13:00 13.7 C 73 % 1000.3 hPa 0.0 l/m 8.7 km/h (2 Bft) O-SO 0.23 h 185 W/m 9.1 C 13.7 C 12.3 km/h (3 Bft)
31.10.2010 14:00 14.1 C 72 % 999.6 hPa 0.0 l/m 5.1 km/h (1 Bft) O-SO 0.00 h 136 W/m 9.1 C 14.1 C 8.2 km/h (2 Bft)
31.10.2010 15:00 13.9 C 72 % 999.1 hPa 0.0 l/m 1.2 km/h (1 Bft) O-SO 0.00 h 52 W/m 9.0 C 13.9 C 3.2 km/h (1 Bft)
31.10.2010 16:00 13.0 C 76 % 998.9 hPa 0.0 l/m 1.7 km/h (1 Bft) O-SO 0.00 h 14 W/m 9.0 C 13.0 C 3.1 km/h (1 Bft)
31.10.2010 17:00 11.7 C 83 % 999.2 hPa 0.0 l/m 0.1 km/h (0 Bft) SO 0.00 h 0 W/m 8.9 C 11.7 C 0.7 km/h (0 Bft)
31.10.2010 18:00 10.5 C 90 % 999.8 hPa 0.0 l/m 0.5 km/h (0 Bft) NO 0.00 h 0 W/m 8.9 C 10.5 C 0.9 km/h (0 Bft)
31.10.2010 19:00 10.2 C 91 % 999.7 hPa 0.0 l/m 0.5 km/h (0 Bft) O-NO 0.00 h 0 W/m 8.9 C 10.2 C 1.5 km/h (1 Bft)
31.10.2010 20:00 10.3 C 90 % 999.8 hPa 0.0 l/m 1.4 km/h (1 Bft) O-SO 0.00 h 0 W/m 8.6 C 10.2 C 2.7 km/h (1 Bft)
31.10.2010 21:00 10.6 C 84 % 999.8 hPa 0.0 l/m 1.2 km/h (1 Bft) O-SO 0.00 h 0 W/m 8.1 C 10.6 C 2.6 km/h (1 Bft)
31.10.2010 22:00 10.0 C 90 % 1000.3 hPa 0.0 l/m 1.0 km/h (0 Bft) N 0.00 h 0 W/m 8.4 C 10.0 C 2.3 km/h (1 Bft)
31.10.2010 23:00 9.6 C 92 % 1000.8 hPa 0.0 l/m 1.6 km/h (1 Bft) N-NW 0.00 h 0 W/m 8.4 C 9.6 C 3.6 km/h (1 Bft)
Min-Datum _ 27.10.10 28.10.10 31.10.10 - 25.10.10 - - - 27.10.10 27.10.10 25.10.10
_ Min-Zeit 06:43 16:03 16:30 - 00:21 - - - 06:43 03:22 00:37
Minimum _ -0.8 C 36 % 998.7 hPa - 0.0 km/h (0 Bft) - - - -1.4 C -1.4 C 0.0 km/h (0 Bft)
Max-Datum _ 30.10.10 29.10.10 26.10.10 25.10.10 25.10.10 - 25.10.10 28.10.10 30.10.10 30.10.10 25.10.10
_ Max-Zeit 14:44 07:11 21:30 00:33 12:21 - 13:45 13:14 14:11 14:44 12:49
Maximum _ 16.3 C 100 % 1029.7 hPa 0.2 l/m 25.0 km/h
N-NW (4 Bft)
- 0.02 h 643 W/m 10.9 C 16.3 C 38.2 km/h
N (5 Bft)
Durchschnitt _ 6.8 C 85 % 1017.5 hPa #0.4 l/m 1.8 km/h (1 Bft) O-SO #35:18 h 191 W/m 4.2 C 6.6 C 3.5 km/h (1 Bft)
© Kaiko 2010